sensor_id;sensor_type;location;lat;lon;timestamp;P1;durP1;ratioP1;P2;durP2;ratioP2
16440;SDS011;8330;-33.858;151.184;2023-04-15T00:00:51;2.72;;;0.70;;
16440;SDS011;8330;-33.858;151.184;2023-04-15T00:03:22;2.70;;;0.55;;
16440;SDS011;8330;-33.858;151.184;2023-04-15T00:05:54;1.70;;;0.50;;
16440;SDS011;8330;-33.858;151.184;2023-04-15T00:08:26;2.15;;;0.80;;
16440;SDS011;8330;-33.858;151.184;2023-04-15T00:10:59;2.58;;;0.50;;
16440;SDS011;8330;-33.858;151.184;2023-04-15T00:13:31;1.42;;;0.40;;
16440;SDS011;8330;-33.858;151.184;2023-04-15T00:16:02;4.75;;;0.90;;
16440;SDS011;8330;-33.858;151.184;2023-04-15T00:18:33;0.88;;;0.32;;
16440;SDS011;8330;-33.858;151.184;2023-04-15T00:21:05;1.90;;;0.30;;
16440;SDS011;8330;-33.858;151.184;2023-04-15T00:23:36;2.80;;;0.50;;
16440;SDS011;8330;-33.858;151.184;2023-04-15T00:26:09;3.22;;;0.55;;
16440;SDS011;8330;-33.858;151.184;2023-04-15T00:28:40;1.08;;;0.40;;
16440;SDS011;8330;-33.858;151.184;2023-04-15T00:31:11;1.88;;;0.60;;
16440;SDS011;8330;-33.858;151.184;2023-04-15T00:33:42;1.05;;;0.40;;
16440;SDS011;8330;-33.858;151.184;2023-04-15T00:36:14;1.50;;;0.32;;
16440;SDS011;8330;-33.858;151.184;2023-04-15T00:38:45;1.92;;;0.50;;
16440;SDS011;8330;-33.858;151.184;2023-04-15T00:41:18;1.95;;;0.50;;
16440;SDS011;8330;-33.858;151.184;2023-04-15T00:43:49;1.75;;;0.60;;
16440;SDS011;8330;-33.858;151.184;2023-04-15T00:46:20;1.02;;;0.40;;
16440;SDS011;8330;-33.858;151.184;2023-04-15T00:48:53;3.13;;;0.85;;
16440;SDS011;8330;-33.858;151.184;2023-04-15T00:51:24;2.38;;;0.75;;
16440;SDS011;8330;-33.858;151.184;2023-04-15T00:53:56;3.20;;;0.70;;
16440;SDS011;8330;-33.858;151.184;2023-04-15T00:56:29;2.33;;;0.50;;
16440;SDS011;8330;-33.858;151.184;2023-04-15T00:59:03;2.45;;;0.50;;
16440;SDS011;8330;-33.858;151.184;2023-04-15T01:01:34;1.95;;;0.50;;
16440;SDS011;8330;-33.858;151.184;2023-04-15T01:04:06;3.28;;;0.55;;
16440;SDS011;8330;-33.858;151.184;2023-04-15T01:06:37;2.72;;;0.50;;
16440;SDS011;8330;-33.858;151.184;2023-04-15T01:09:08;4.00;;;0.50;;
16440;SDS011;8330;-33.858;151.184;2023-04-15T01:11:41;2.83;;;0.50;;
16440;SDS011;8330;-33.858;151.184;2023-04-15T01:14:13;1.90;;;0.50;;
16440;SDS011;8330;-33.858;151.184;2023-04-15T01:16:44;2.13;;;0.40;;
16440;SDS011;8330;-33.858;151.184;2023-04-15T01:19:16;1.20;;;0.30;;
16440;SDS011;8330;-33.858;151.184;2023-04-15T01:21:47;3.67;;;0.77;;
16440;SDS011;8330;-33.858;151.184;2023-04-15T01:24:20;1.65;;;0.43;;
16440;SDS011;8330;-33.858;151.184;2023-04-15T01:26:56;2.15;;;0.68;;
16440;SDS011;8330;-33.858;151.184;2023-04-15T01:29:27;1.73;;;0.45;;
16440;SDS011;8330;-33.858;151.184;2023-04-15T01:32:00;1.40;;;0.40;;
16440;SDS011;8330;-33.858;151.184;2023-04-15T01:34:31;1.13;;;0.40;;
16440;SDS011;8330;-33.858;151.184;2023-04-15T01:37:02;1.83;;;0.30;;
16440;SDS011;8330;-33.858;151.184;2023-04-15T01:39:34;2.78;;;0.55;;
16440;SDS011;8330;-33.858;151.184;2023-04-15T01:42:07;1.95;;;0.60;;
16440;SDS011;8330;-33.858;151.184;2023-04-15T01:44:38;2.03;;;0.43;;
16440;SDS011;8330;-33.858;151.184;2023-04-15T01:47:10;1.52;;;0.47;;
16440;SDS011;8330;-33.858;151.184;2023-04-15T01:49:41;0.98;;;0.50;;
16440;SDS011;8330;-33.858;151.184;2023-04-15T01:52:12;1.67;;;0.45;;
16440;SDS011;8330;-33.858;151.184;2023-04-15T01:54:43;3.55;;;0.60;;
16440;SDS011;8330;-33.858;151.184;2023-04-15T01:57:16;1.38;;;0.50;;
16440;SDS011;8330;-33.858;151.184;2023-04-15T01:59:47;2.25;;;0.50;;
16440;SDS011;8330;-33.858;151.184;2023-04-15T02:02:18;1.17;;;0.40;;
16440;SDS011;8330;-33.858;151.184;2023-04-15T02:04:49;1.48;;;0.30;;
16440;SDS011;8330;-33.858;151.184;2023-04-15T02:07:21;1.33;;;0.47;;
16440;SDS011;8330;-33.858;151.184;2023-04-15T02:09:52;1.30;;;0.30;;
16440;SDS011;8330;-33.858;151.184;2023-04-15T02:12:25;1.55;;;0.40;;
16440;SDS011;8330;-33.858;151.184;2023-04-15T02:14:56;0.65;;;0.38;;
16440;SDS011;8330;-33.858;151.184;2023-04-15T02:17:27;1.20;;;0.30;;
16440;SDS011;8330;-33.858;151.184;2023-04-15T02:19:58;2.83;;;0.40;;
16440;SDS011;8330;-33.858;151.184;2023-04-15T02:22:31;1.30;;;0.40;;
16440;SDS011;8330;-33.858;151.184;2023-04-15T02:25:02;2.15;;;0.70;;
16440;SDS011;8330;-33.858;151.184;2023-04-15T02:27:36;2.05;;;0.63;;
16440;SDS011;8330;-33.858;151.184;2023-04-15T02:30:08;1.58;;;0.60;;
16440;SDS011;8330;-33.858;151.184;2023-04-15T02:32:39;2.58;;;0.40;;
16440;SDS011;8330;-33.858;151.184;2023-04-15T02:35:11;1.98;;;0.40;;
16440;SDS011;8330;-33.858;151.184;2023-04-15T02:37:44;1.52;;;0.38;;
16440;SDS011;8330;-33.858;151.184;2023-04-15T02:40:15;2.40;;;0.50;;
16440;SDS011;8330;-33.858;151.184;2023-04-15T02:42:48;1.85;;;0.32;;
16440;SDS011;8330;-33.858;151.184;2023-04-15T02:45:19;0.55;;;0.30;;
16440;SDS011;8330;-33.858;151.184;2023-04-15T02:47:52;1.05;;;0.43;;
16440;SDS011;8330;-33.858;151.184;2023-04-15T02:50:23;1.20;;;0.40;;
16440;SDS011;8330;-33.858;151.184;2023-04-15T02:52:56;1.10;;;0.43;;
16440;SDS011;8330;-33.858;151.184;2023-04-15T02:55:28;1.45;;;0.47;;
16440;SDS011;8330;-33.858;151.184;2023-04-15T02:58:01;0.47;;;0.30;;
16440;SDS011;8330;-33.858;151.184;2023-04-15T03:00:32;1.67;;;0.43;;
16440;SDS011;8330;-33.858;151.184;2023-04-15T03:03:04;1.27;;;0.40;;
16440;SDS011;8330;-33.858;151.184;2023-04-15T03:05:36;1.92;;;0.60;;
16440;SDS011;8330;-33.858;151.184;2023-04-15T03:08:07;2.05;;;0.60;;
16440;SDS011;8330;-33.858;151.184;2023-04-15T03:10:38;2.40;;;0.40;;
16440;SDS011;8330;-33.858;151.184;2023-04-15T03:13:11;1.55;;;0.60;;
16440;SDS011;8330;-33.858;151.184;2023-04-15T03:15:42;1.13;;;0.35;;
16440;SDS011;8330;-33.858;151.184;2023-04-15T03:18:14;0.85;;;0.40;;
16440;SDS011;8330;-33.858;151.184;2023-04-15T03:20:45;1.85;;;0.50;;
16440;SDS011;8330;-33.858;151.184;2023-04-15T03:23:17;0.95;;;0.35;;
16440;SDS011;8330;-33.858;151.184;2023-04-15T03:25:48;0.95;;;0.50;;
16440;SDS011;8330;-33.858;151.184;2023-04-15T03:28:23;2.50;;;0.70;;
16440;SDS011;8330;-33.858;151.184;2023-04-15T03:30:54;3.45;;;0.60;;
16440;SDS011;8330;-33.858;151.184;2023-04-15T03:33:27;5.88;;;0.82;;
16440;SDS011;8330;-33.858;151.184;2023-04-15T03:35:58;4.05;;;0.80;;
16440;SDS011;8330;-33.858;151.184;2023-04-15T03:38:29;3.42;;;0.75;;
16440;SDS011;8330;-33.858;151.184;2023-04-15T03:41:01;1.42;;;0.50;;
16440;SDS011;8330;-33.858;151.184;2023-04-15T03:43:34;3.88;;;0.77;;
16440;SDS011;8330;-33.858;151.184;2023-04-15T03:46:05;4.43;;;0.85;;
16440;SDS011;8330;-33.858;151.184;2023-04-15T03:48:36;4.53;;;0.77;;
16440;SDS011;8330;-33.858;151.184;2023-04-15T03:51:07;4.15;;;0.77;;
16440;SDS011;8330;-33.858;151.184;2023-04-15T03:53:38;3.83;;;0.93;;
16440;SDS011;8330;-33.858;151.184;2023-04-15T03:56:09;7.35;;;1.00;;
16440;SDS011;8330;-33.858;151.184;2023-04-15T03:58:43;4.13;;;1.10;;
16440;SDS011;8330;-33.858;151.184;2023-04-15T04:01:14;3.47;;;1.00;;
16440;SDS011;8330;-33.858;151.184;2023-04-15T04:03:45;6.80;;;0.88;;
16440;SDS011;8330;-33.858;151.184;2023-04-15T04:06:17;2.83;;;0.98;;
16440;SDS011;8330;-33.858;151.184;2023-04-15T04:08:48;4.30;;;1.00;;
16440;SDS011;8330;-33.858;151.184;2023-04-15T04:11:19;3.05;;;0.90;;
16440;SDS011;8330;-33.858;151.184;2023-04-15T04:13:52;5.25;;;1.02;;
16440;SDS011;8330;-33.858;151.184;2023-04-15T04:16:23;3.80;;;0.80;;
16440;SDS011;8330;-33.858;151.184;2023-04-15T04:18:54;5.80;;;1.00;;
16440;SDS011;8330;-33.858;151.184;2023-04-15T04:21:25;4.95;;;1.13;;
16440;SDS011;8330;-33.858;151.184;2023-04-15T04:23:59;3.40;;;1.10;;
16440;SDS011;8330;-33.858;151.184;2023-04-15T04:26:30;4.30;;;1.10;;
16440;SDS011;8330;-33.858;151.184;2023-04-15T04:29:03;3.75;;;0.90;;
16440;SDS011;8330;-33.858;151.184;2023-04-15T04:31:34;5.13;;;1.10;;
16440;SDS011;8330;-33.858;151.184;2023-04-15T04:34:05;6.38;;;1.17;;
16440;SDS011;8330;-33.858;151.184;2023-04-15T04:36:36;8.52;;;1.17;;
16440;SDS011;8330;-33.858;151.184;2023-04-15T04:39:07;8.40;;;1.10;;
16440;SDS011;8330;-33.858;151.184;2023-04-15T04:41:38;4.72;;;1.10;;
16440;SDS011;8330;-33.858;151.184;2023-04-15T04:44:11;5.38;;;1.15;;
16440;SDS011;8330;-33.858;151.184;2023-04-15T04:46:42;5.43;;;1.00;;
16440;SDS011;8330;-33.858;151.184;2023-04-15T04:49:13;5.10;;;1.10;;
16440;SDS011;8330;-33.858;151.184;2023-04-15T04:51:44;3.88;;;0.88;;
16440;SDS011;8330;-33.858;151.184;2023-04-15T04:54:16;4.65;;;0.95;;
16440;SDS011;8330;-33.858;151.184;2023-04-15T04:56:47;2.65;;;0.95;;
16440;SDS011;8330;-33.858;151.184;2023-04-15T04:59:20;1.60;;;0.80;;
16440;SDS011;8330;-33.858;151.184;2023-04-15T05:01:51;4.47;;;0.90;;
16440;SDS011;8330;-33.858;151.184;2023-04-15T05:04:22;2.08;;;0.77;;
16440;SDS011;8330;-33.858;151.184;2023-04-15T05:06:53;2.67;;;0.80;;
16440;SDS011;8330;-33.858;151.184;2023-04-15T05:09:24;1.60;;;0.65;;
16440;SDS011;8330;-33.858;151.184;2023-04-15T05:11:57;2.50;;;0.88;;
16440;SDS011;8330;-33.858;151.184;2023-04-15T05:14:30;2.78;;;0.73;;
16440;SDS011;8330;-33.858;151.184;2023-04-15T05:17:01;4.28;;;0.68;;
16440;SDS011;8330;-33.858;151.184;2023-04-15T05:19:33;3.42;;;0.80;;
16440;SDS011;8330;-33.858;151.184;2023-04-15T05:22:04;4.60;;;0.70;;
16440;SDS011;8330;-33.858;151.184;2023-04-15T05:24:35;3.78;;;0.80;;
16440;SDS011;8330;-33.858;151.184;2023-04-15T05:27:06;2.10;;;0.75;;
16440;SDS011;8330;-33.858;151.184;2023-04-15T05:29:40;2.95;;;0.90;;
16440;SDS011;8330;-33.858;151.184;2023-04-15T05:32:11;2.67;;;0.80;;
16440;SDS011;8330;-33.858;151.184;2023-04-15T05:34:42;3.45;;;0.80;;
16440;SDS011;8330;-33.858;151.184;2023-04-15T05:37:13;3.22;;;0.88;;
16440;SDS011;8330;-33.858;151.184;2023-04-15T05:39:46;2.97;;;0.88;;
16440;SDS011;8330;-33.858;151.184;2023-04-15T05:42:17;6.43;;;0.90;;
16440;SDS011;8330;-33.858;151.184;2023-04-15T05:44:50;3.20;;;1.50;;
16440;SDS011;8330;-33.858;151.184;2023-04-15T05:47:21;5.55;;;1.30;;
16440;SDS011;8330;-33.858;151.184;2023-04-15T05:49:52;3.28;;;0.98;;
16440;SDS011;8330;-33.858;151.184;2023-04-15T05:52:24;4.95;;;0.95;;
16440;SDS011;8330;-33.858;151.184;2023-04-15T05:54:55;3.72;;;0.90;;
16440;SDS011;8330;-33.858;151.184;2023-04-15T05:57:26;1.75;;;0.70;;
16440;SDS011;8330;-33.858;151.184;2023-04-15T05:59:59;2.85;;;1.00;;
16440;SDS011;8330;-33.858;151.184;2023-04-15T06:02:30;2.45;;;0.77;;
16440;SDS011;8330;-33.858;151.184;2023-04-15T06:05:01;4.00;;;0.93;;
16440;SDS011;8330;-33.858;151.184;2023-04-15T06:07:34;1.70;;;0.70;;
16440;SDS011;8330;-33.858;151.184;2023-04-15T06:10:06;4.22;;;1.00;;
16440;SDS011;8330;-33.858;151.184;2023-04-15T06:12:37;4.40;;;0.90;;
16440;SDS011;8330;-33.858;151.184;2023-04-15T06:15:11;2.95;;;1.00;;
16440;SDS011;8330;-33.858;151.184;2023-04-15T06:17:42;4.00;;;0.93;;
16440;SDS011;8330;-33.858;151.184;2023-04-15T06:20:13;3.20;;;0.93;;
16440;SDS011;8330;-33.858;151.184;2023-04-15T06:22:46;5.13;;;1.20;;
16440;SDS011;8330;-33.858;151.184;2023-04-15T06:25:17;4.97;;;1.20;;
16440;SDS011;8330;-33.858;151.184;2023-04-15T06:27:48;3.28;;;1.00;;
16440;SDS011;8330;-33.858;151.184;2023-04-15T06:30:21;3.75;;;1.23;;
16440;SDS011;8330;-33.858;151.184;2023-04-15T06:32:52;6.07;;;1.27;;
16440;SDS011;8330;-33.858;151.184;2023-04-15T06:35:24;4.60;;;1.00;;
16440;SDS011;8330;-33.858;151.184;2023-04-15T06:37:55;3.20;;;1.08;;
16440;SDS011;8330;-33.858;151.184;2023-04-15T06:40:26;4.07;;;1.27;;
16440;SDS011;8330;-33.858;151.184;2023-04-15T06:42:57;3.67;;;1.00;;
16440;SDS011;8330;-33.858;151.184;2023-04-15T06:45:32;3.03;;;1.10;;
16440;SDS011;8330;-33.858;151.184;2023-04-15T06:48:03;5.63;;;1.50;;
16440;SDS011;8330;-33.858;151.184;2023-04-15T06:50:34;4.30;;;1.25;;
16440;SDS011;8330;-33.858;151.184;2023-04-15T06:53:05;3.60;;;1.10;;
16440;SDS011;8330;-33.858;151.184;2023-04-15T06:55:37;7.57;;;1.70;;
16440;SDS011;8330;-33.858;151.184;2023-04-15T06:58:08;4.60;;;1.35;;
16440;SDS011;8330;-33.858;151.184;2023-04-15T07:00:41;3.47;;;1.10;;
16440;SDS011;8330;-33.858;151.184;2023-04-15T07:03:12;4.38;;;1.35;;
16440;SDS011;8330;-33.858;151.184;2023-04-15T07:05:43;4.85;;;1.15;;
16440;SDS011;8330;-33.858;151.184;2023-04-15T07:08:15;4.28;;;1.20;;
16440;SDS011;8330;-33.858;151.184;2023-04-15T07:10:46;2.95;;;1.20;;
16440;SDS011;8330;-33.858;151.184;2023-04-15T07:13:17;4.90;;;0.90;;
16440;SDS011;8330;-33.858;151.184;2023-04-15T07:15:50;6.43;;;1.30;;
16440;SDS011;8330;-33.858;151.184;2023-04-15T07:18:22;5.35;;;1.30;;
16440;SDS011;8330;-33.858;151.184;2023-04-15T07:20:53;5.47;;;1.55;;
16440;SDS011;8330;-33.858;151.184;2023-04-15T07:23:24;4.40;;;1.50;;
16440;SDS011;8330;-33.858;151.184;2023-04-15T07:25:55;5.78;;;1.67;;
16440;SDS011;8330;-33.858;151.184;2023-04-15T07:28:26;3.88;;;1.10;;
16440;SDS011;8330;-33.858;151.184;2023-04-15T07:30:59;6.63;;;1.30;;
16440;SDS011;8330;-33.858;151.184;2023-04-15T07:33:30;3.90;;;1.20;;
16440;SDS011;8330;-33.858;151.184;2023-04-15T07:36:03;4.97;;;1.23;;
16440;SDS011;8330;-33.858;151.184;2023-04-15T07:38:34;4.63;;;1.40;;
16440;SDS011;8330;-33.858;151.184;2023-04-15T07:41:05;4.70;;;1.30;;
16440;SDS011;8330;-33.858;151.184;2023-04-15T07:43:36;5.93;;;1.63;;
16440;SDS011;8330;-33.858;151.184;2023-04-15T07:46:11;3.63;;;1.20;;
16440;SDS011;8330;-33.858;151.184;2023-04-15T07:48:43;6.57;;;1.58;;
16440;SDS011;8330;-33.858;151.184;2023-04-15T07:51:14;2.22;;;1.00;;
16440;SDS011;8330;-33.858;151.184;2023-04-15T07:53:46;4.20;;;1.13;;
16440;SDS011;8330;-33.858;151.184;2023-04-15T07:56:18;4.32;;;1.15;;
16440;SDS011;8330;-33.858;151.184;2023-04-15T07:58:48;5.55;;;1.27;;
16440;SDS011;8330;-33.858;151.184;2023-04-15T08:01:21;3.63;;;1.30;;
16440;SDS011;8330;-33.858;151.184;2023-04-15T08:03:53;5.20;;;1.30;;
16440;SDS011;8330;-33.858;151.184;2023-04-15T08:06:25;7.18;;;1.20;;
16440;SDS011;8330;-33.858;151.184;2023-04-15T08:08:56;4.82;;;1.25;;
16440;SDS011;8330;-33.858;151.184;2023-04-15T08:11:30;7.20;;;1.42;;
16440;SDS011;8330;-33.858;151.184;2023-04-15T08:14:02;3.80;;;1.20;;
16440;SDS011;8330;-33.858;151.184;2023-04-15T08:16:34;6.00;;;1.48;;
16440;SDS011;8330;-33.858;151.184;2023-04-15T08:19:06;4.45;;;1.20;;
16440;SDS011;8330;-33.858;151.184;2023-04-15T08:21:36;5.75;;;1.60;;
16440;SDS011;8330;-33.858;151.184;2023-04-15T08:24:08;4.05;;;1.25;;
16440;SDS011;8330;-33.858;151.184;2023-04-15T08:26:39;3.42;;;1.10;;
16440;SDS011;8330;-33.858;151.184;2023-04-15T08:29:12;3.72;;;1.30;;
16440;SDS011;8330;-33.858;151.184;2023-04-15T08:31:44;4.38;;;1.23;;
16440;SDS011;8330;-33.858;151.184;2023-04-15T08:34:15;2.88;;;1.05;;
16440;SDS011;8330;-33.858;151.184;2023-04-15T08:36:46;7.13;;;1.30;;
16440;SDS011;8330;-33.858;151.184;2023-04-15T08:39:17;4.13;;;1.38;;
16440;SDS011;8330;-33.858;151.184;2023-04-15T08:41:50;4.18;;;1.30;;
16440;SDS011;8330;-33.858;151.184;2023-04-15T08:44:28;4.20;;;1.33;;
16440;SDS011;8330;-33.858;151.184;2023-04-15T08:47:04;3.85;;;1.30;;
16440;SDS011;8330;-33.858;151.184;2023-04-15T08:49:38;4.25;;;1.10;;
16440;SDS011;8330;-33.858;151.184;2023-04-15T08:52:10;4.97;;;1.10;;
16440;SDS011;8330;-33.858;151.184;2023-04-15T08:54:53;4.93;;;1.55;;
16440;SDS011;8330;-33.858;151.184;2023-04-15T08:57:25;2.70;;;1.08;;
16440;SDS011;8330;-33.858;151.184;2023-04-15T09:00:00;2.45;;;1.00;;
16440;SDS011;8330;-33.858;151.184;2023-04-15T09:02:36;2.63;;;1.13;;
16440;SDS011;8330;-33.858;151.184;2023-04-15T09:05:07;4.45;;;1.35;;
16440;SDS011;8330;-33.858;151.184;2023-04-15T09:07:38;2.00;;;0.90;;
16440;SDS011;8330;-33.858;151.184;2023-04-15T09:10:10;3.40;;;1.17;;
16440;SDS011;8330;-33.858;151.184;2023-04-15T09:12:43;3.83;;;1.30;;
16440;SDS011;8330;-33.858;151.184;2023-04-15T09:15:15;3.95;;;1.55;;
16440;SDS011;8330;-33.858;151.184;2023-04-15T09:17:48;3.13;;;1.00;;
16440;SDS011;8330;-33.858;151.184;2023-04-15T09:20:21;5.75;;;1.17;;
16440;SDS011;8330;-33.858;151.184;2023-04-15T09:22:52;4.95;;;1.45;;
16440;SDS011;8330;-33.858;151.184;2023-04-15T09:25:27;6.80;;;1.60;;
16440;SDS011;8330;-33.858;151.184;2023-04-15T09:27:58;7.00;;;1.60;;
16440;SDS011;8330;-33.858;151.184;2023-04-15T09:30:29;3.58;;;1.40;;
16440;SDS011;8330;-33.858;151.184;2023-04-15T09:33:03;5.57;;;1.50;;
16440;SDS011;8330;-33.858;151.184;2023-04-15T09:35:36;5.35;;;1.35;;
16440;SDS011;8330;-33.858;151.184;2023-04-15T09:38:07;4.43;;;1.55;;
16440;SDS011;8330;-33.858;151.184;2023-04-15T09:40:39;2.85;;;1.20;;
16440;SDS011;8330;-33.858;151.184;2023-04-15T09:43:10;5.47;;;1.75;;
16440;SDS011;8330;-33.858;151.184;2023-04-15T09:45:46;5.20;;;1.48;;
16440;SDS011;8330;-33.858;151.184;2023-04-15T09:48:21;6.65;;;1.48;;
16440;SDS011;8330;-33.858;151.184;2023-04-15T09:50:54;5.47;;;1.35;;
16440;SDS011;8330;-33.858;151.184;2023-04-15T09:53:28;3.70;;;1.42;;
16440;SDS011;8330;-33.858;151.184;2023-04-15T09:56:02;4.32;;;1.35;;
16440;SDS011;8330;-33.858;151.184;2023-04-15T09:58:34;4.82;;;1.30;;
16440;SDS011;8330;-33.858;151.184;2023-04-15T10:01:09;4.75;;;1.40;;
16440;SDS011;8330;-33.858;151.184;2023-04-15T10:03:43;2.65;;;1.00;;
16440;SDS011;8330;-33.858;151.184;2023-04-15T10:06:15;4.22;;;1.38;;
16440;SDS011;8330;-33.858;151.184;2023-04-15T10:08:46;3.42;;;1.15;;
16440;SDS011;8330;-33.858;151.184;2023-04-15T10:11:18;6.03;;;1.30;;
16440;SDS011;8330;-33.858;151.184;2023-04-15T10:13:53;3.78;;;1.30;;
16440;SDS011;8330;-33.858;151.184;2023-04-15T10:16:26;4.45;;;1.38;;
16440;SDS011;8330;-33.858;151.184;2023-04-15T10:19:02;5.20;;;1.60;;
16440;SDS011;8330;-33.858;151.184;2023-04-15T10:21:37;7.28;;;1.40;;
16440;SDS011;8330;-33.858;151.184;2023-04-15T10:24:10;5.47;;;1.45;;
16440;SDS011;8330;-33.858;151.184;2023-04-15T10:26:41;4.57;;;1.50;;
16440;SDS011;8330;-33.858;151.184;2023-04-15T10:29:14;7.15;;;1.90;;
16440;SDS011;8330;-33.858;151.184;2023-04-15T10:31:46;5.68;;;1.60;;
16440;SDS011;8330;-33.858;151.184;2023-04-15T10:34:26;4.68;;;2.05;;
16440;SDS011;8330;-33.858;151.184;2023-04-15T10:36:58;6.57;;;1.95;;
16440;SDS011;8330;-33.858;151.184;2023-04-15T10:39:40;8.80;;;2.00;;
16440;SDS011;8330;-33.858;151.184;2023-04-15T10:42:14;5.72;;;1.90;;
16440;SDS011;8330;-33.858;151.184;2023-04-15T10:44:48;6.85;;;2.20;;
16440;SDS011;8330;-33.858;151.184;2023-04-15T10:47:24;6.20;;;1.90;;
16440;SDS011;8330;-33.858;151.184;2023-04-15T10:49:59;4.85;;;1.77;;
16440;SDS011;8330;-33.858;151.184;2023-04-15T10:52:32;6.40;;;1.77;;
16440;SDS011;8330;-33.858;151.184;2023-04-15T10:55:12;4.68;;;1.85;;
16440;SDS011;8330;-33.858;151.184;2023-04-15T10:57:50;4.68;;;1.67;;
16440;SDS011;8330;-33.858;151.184;2023-04-15T11:00:24;3.72;;;1.40;;
16440;SDS011;8330;-33.858;151.184;2023-04-15T11:02:58;4.85;;;1.30;;
16440;SDS011;8330;-33.858;151.184;2023-04-15T11:05:52;4.38;;;1.42;;
16440;SDS011;8330;-33.858;151.184;2023-04-15T11:14:26;4.72;;;1.50;;
16440;SDS011;8330;-33.858;151.184;2023-04-15T11:17:03;3.85;;;1.02;;
16440;SDS011;8330;-33.858;151.184;2023-04-15T11:19:38;4.43;;;1.10;;
16440;SDS011;8330;-33.858;151.184;2023-04-15T11:22:12;5.10;;;1.10;;
16440;SDS011;8330;-33.858;151.184;2023-04-15T11:24:49;3.40;;;1.10;;
16440;SDS011;8330;-33.858;151.184;2023-04-15T11:27:20;6.20;;;1.10;;
16440;SDS011;8330;-33.858;151.184;2023-04-15T11:29:53;4.50;;;1.30;;
16440;SDS011;8330;-33.858;151.184;2023-04-15T11:32:24;4.43;;;1.30;;
16440;SDS011;8330;-33.858;151.184;2023-04-15T11:34:55;5.93;;;1.13;;
16440;SDS011;8330;-33.858;151.184;2023-04-15T11:37:32;3.85;;;1.30;;
16440;SDS011;8330;-33.858;151.184;2023-04-15T11:40:04;3.15;;;1.23;;
16440;SDS011;8330;-33.858;151.184;2023-04-15T11:42:38;2.83;;;1.08;;
16440;SDS011;8330;-33.858;151.184;2023-04-15T11:45:09;4.80;;;1.35;;
16440;SDS011;8330;-33.858;151.184;2023-04-15T11:47:41;5.65;;;1.15;;
16440;SDS011;8330;-33.858;151.184;2023-04-15T11:50:16;5.30;;;1.15;;
16440;SDS011;8330;-33.858;151.184;2023-04-15T11:52:56;2.97;;;1.13;;
16440;SDS011;8330;-33.858;151.184;2023-04-15T11:55:29;4.15;;;1.20;;
16440;SDS011;8330;-33.858;151.184;2023-04-15T11:58:13;3.63;;;1.45;;
16440;SDS011;8330;-33.858;151.184;2023-04-15T12:00:47;3.17;;;1.17;;
16440;SDS011;8330;-33.858;151.184;2023-04-15T12:03:23;2.28;;;0.90;;
16440;SDS011;8330;-33.858;151.184;2023-04-15T12:08:58;4.18;;;1.10;;
16440;SDS011;8330;-33.858;151.184;2023-04-15T12:11:32;6.15;;;1.50;;
16440;SDS011;8330;-33.858;151.184;2023-04-15T12:14:05;2.92;;;1.20;;
16440;SDS011;8330;-33.858;151.184;2023-04-15T12:16:44;3.30;;;1.10;;
16440;SDS011;8330;-33.858;151.184;2023-04-15T12:19:18;5.30;;;1.05;;
16440;SDS011;8330;-33.858;151.184;2023-04-15T12:21:52;3.65;;;1.30;;
16440;SDS011;8330;-33.858;151.184;2023-04-15T12:24:29;4.15;;;1.27;;
16440;SDS011;8330;-33.858;151.184;2023-04-15T12:27:03;3.30;;;1.20;;
16440;SDS011;8330;-33.858;151.184;2023-04-15T12:29:36;5.43;;;1.45;;
16440;SDS011;8330;-33.858;151.184;2023-04-15T12:32:12;4.68;;;1.20;;
16440;SDS011;8330;-33.858;151.184;2023-04-15T12:34:48;5.50;;;1.10;;
16440;SDS011;8330;-33.858;151.184;2023-04-15T12:37:20;4.35;;;1.27;;
16440;SDS011;8330;-33.858;151.184;2023-04-15T12:39:54;2.28;;;1.02;;
16440;SDS011;8330;-33.858;151.184;2023-04-15T12:42:25;3.90;;;1.30;;
16440;SDS011;8330;-33.858;151.184;2023-04-15T12:44:56;7.03;;;1.33;;
16440;SDS011;8330;-33.858;151.184;2023-04-15T12:47:29;4.13;;;1.10;;
16440;SDS011;8330;-33.858;151.184;2023-04-15T12:49:59;2.85;;;1.00;;
16440;SDS011;8330;-33.858;151.184;2023-04-15T12:52:30;5.95;;;1.20;;
16440;SDS011;8330;-33.858;151.184;2023-04-15T12:55:06;3.13;;;1.35;;
16440;SDS011;8330;-33.858;151.184;2023-04-15T12:57:38;1.90;;;1.00;;
16440;SDS011;8330;-33.858;151.184;2023-04-15T13:00:09;3.70;;;1.08;;
16440;SDS011;8330;-33.858;151.184;2023-04-15T13:02:40;4.18;;;1.00;;
16440;SDS011;8330;-33.858;151.184;2023-04-15T13:05:13;2.15;;;0.90;;
16440;SDS011;8330;-33.858;151.184;2023-04-15T13:07:44;1.45;;;0.95;;
16440;SDS011;8330;-33.858;151.184;2023-04-15T13:10:19;2.30;;;0.90;;
16440;SDS011;8330;-33.858;151.184;2023-04-15T13:12:50;3.38;;;1.10;;
16440;SDS011;8330;-33.858;151.184;2023-04-15T13:15:22;1.73;;;0.80;;
16440;SDS011;8330;-33.858;151.184;2023-04-15T13:17:53;1.70;;;0.93;;
16440;SDS011;8330;-33.858;151.184;2023-04-15T13:20:24;1.92;;;0.80;;
16440;SDS011;8330;-33.858;151.184;2023-04-15T13:22:56;2.10;;;0.82;;
16440;SDS011;8330;-33.858;151.184;2023-04-15T13:25:29;3.72;;;0.90;;
16440;SDS011;8330;-33.858;151.184;2023-04-15T13:28:00;3.05;;;0.88;;
16440;SDS011;8330;-33.858;151.184;2023-04-15T13:30:31;2.05;;;0.80;;
16440;SDS011;8330;-33.858;151.184;2023-04-15T13:33:02;1.17;;;0.88;;
16440;SDS011;8330;-33.858;151.184;2023-04-15T13:35:33;3.83;;;0.90;;
16440;SDS011;8330;-33.858;151.184;2023-04-15T13:38:04;2.20;;;0.82;;
16440;SDS011;8330;-33.858;151.184;2023-04-15T13:40:37;3.42;;;0.90;;
16440;SDS011;8330;-33.858;151.184;2023-04-15T13:43:08;4.07;;;1.13;;
16440;SDS011;8330;-33.858;151.184;2023-04-15T13:45:39;2.65;;;0.70;;
16440;SDS011;8330;-33.858;151.184;2023-04-15T13:48:13;1.67;;;0.90;;
16440;SDS011;8330;-33.858;151.184;2023-04-15T13:50:44;1.73;;;0.80;;
16440;SDS011;8330;-33.858;151.184;2023-04-15T13:53:17;2.53;;;0.90;;
16440;SDS011;8330;-33.858;151.184;2023-04-15T13:55:50;1.92;;;0.85;;
16440;SDS011;8330;-33.858;151.184;2023-04-15T13:58:21;4.05;;;1.00;;
16440;SDS011;8330;-33.858;151.184;2023-04-15T14:00:53;2.35;;;0.88;;
16440;SDS011;8330;-33.858;151.184;2023-04-15T14:03:24;4.28;;;0.95;;
16440;SDS011;8330;-33.858;151.184;2023-04-15T14:05:55;2.08;;;0.90;;
16440;SDS011;8330;-33.858;151.184;2023-04-15T14:08:26;1.23;;;0.70;;
16440;SDS011;8330;-33.858;151.184;2023-04-15T14:10:59;3.75;;;0.93;;
16440;SDS011;8330;-33.858;151.184;2023-04-15T14:13:30;3.22;;;0.80;;
16440;SDS011;8330;-33.858;151.184;2023-04-15T14:16:01;2.00;;;0.80;;
16440;SDS011;8330;-33.858;151.184;2023-04-15T14:18:33;2.80;;;1.20;;
16440;SDS011;8330;-33.858;151.184;2023-04-15T14:21:04;1.65;;;0.70;;
16440;SDS011;8330;-33.858;151.184;2023-04-15T14:23:35;5.40;;;0.90;;
16440;SDS011;8330;-33.858;151.184;2023-04-15T14:26:08;1.48;;;0.65;;
16440;SDS011;8330;-33.858;151.184;2023-04-15T14:28:38;2.13;;;0.70;;
16440;SDS011;8330;-33.858;151.184;2023-04-15T14:31:10;3.42;;;0.90;;
16440;SDS011;8330;-33.858;151.184;2023-04-15T14:33:41;2.58;;;0.80;;
16440;SDS011;8330;-33.858;151.184;2023-04-15T14:36:11;3.22;;;0.80;;
16440;SDS011;8330;-33.858;151.184;2023-04-15T14:38:42;1.25;;;0.70;;
16440;SDS011;8330;-33.858;151.184;2023-04-15T14:41:14;2.47;;;0.90;;
16440;SDS011;8330;-33.858;151.184;2023-04-15T14:43:45;2.42;;;0.80;;
16440;SDS011;8330;-33.858;151.184;2023-04-15T14:46:16;2.97;;;0.65;;
16440;SDS011;8330;-33.858;151.184;2023-04-15T14:48:46;2.40;;;0.68;;
16440;SDS011;8330;-33.858;151.184;2023-04-15T14:51:17;3.90;;;0.65;;
16440;SDS011;8330;-33.858;151.184;2023-04-15T14:53:48;1.98;;;0.73;;
16440;SDS011;8330;-33.858;151.184;2023-04-15T14:56:20;3.15;;;0.68;;
16440;SDS011;8330;-33.858;151.184;2023-04-15T14:58:51;2.10;;;0.70;;